sensor_id;sensor_type;location;lat;lon;timestamp;pressure;altitude;pressure_sealevel;temperature;humidity
13029;BME280;6581;42.662;23.402;2023-04-26T00:02:04;94417.56;;;9.65;100.00
13029;BME280;6581;42.662;23.402;2023-04-26T00:04:31;94409.63;;;9.61;100.00
13029;BME280;6581;42.662;23.402;2023-04-26T00:06:59;94406.91;;;9.51;100.00
13029;BME280;6581;42.662;23.402;2023-04-26T00:09:26;94409.56;;;9.47;100.00
13029;BME280;6581;42.662;23.402;2023-04-26T00:11:54;94405.00;;;9.44;100.00
13029;BME280;6581;42.662;23.402;2023-04-26T00:14:21;94400.09;;;9.43;100.00
13029;BME280;6581;42.662;23.402;2023-04-26T00:16:48;94397.03;;;9.41;100.00
13029;BME280;6581;42.662;23.402;2023-04-26T00:19:15;94383.06;;;9.40;100.00
13029;BME280;6581;42.662;23.402;2023-04-26T00:21:43;94386.13;;;9.42;100.00
13029;BME280;6581;42.662;23.402;2023-04-26T00:24:10;94384.22;;;9.39;100.00
13029;BME280;6581;42.662;23.402;2023-04-26T00:26:37;94391.34;;;9.35;100.00
13029;BME280;6581;42.662;23.402;2023-04-26T00:29:06;94385.34;;;9.34;100.00
13029;BME280;6581;42.662;23.402;2023-04-26T00:31:33;94386.06;;;9.31;100.00
13029;BME280;6581;42.662;23.402;2023-04-26T00:34:00;94378.13;;;9.31;100.00
13029;BME280;6581;42.662;23.402;2023-04-26T00:36:28;94374.34;;;9.32;100.00
13029;BME280;6581;42.662;23.402;2023-04-26T00:38:57;94376.25;;;9.32;100.00
13029;BME280;6581;42.662;23.402;2023-04-26T00:41:25;94373.59;;;9.32;100.00
13029;BME280;6581;42.662;23.402;2023-04-26T00:43:52;94377.00;;;9.32;100.00
13029;BME280;6581;42.662;23.402;2023-04-26T00:46:21;94372.81;;;9.28;100.00
13029;BME280;6581;42.662;23.402;2023-04-26T00:48:48;94371.72;;;9.29;100.00
13029;BME280;6581;42.662;23.402;2023-04-26T00:51:16;94372.06;;;9.31;100.00
13029;BME280;6581;42.662;23.402;2023-04-26T00:53:44;94372.06;;;9.24;100.00
13029;BME280;6581;42.662;23.402;2023-04-26T00:56:12;94377.34;;;9.24;100.00
13029;BME280;6581;42.662;23.402;2023-04-26T00:58:40;94377.72;;;9.26;100.00
13029;BME280;6581;42.662;23.402;2023-04-26T01:01:07;94376.97;;;9.25;100.00
13029;BME280;6581;42.662;23.402;2023-04-26T01:03:37;94375.81;;;9.23;100.00
13029;BME280;6581;42.662;23.402;2023-04-26T01:06:05;94380.34;;;9.22;100.00
13029;BME280;6581;42.662;23.402;2023-04-26T01:08:32;94375.13;;;9.29;100.00
13029;BME280;6581;42.662;23.402;2023-04-26T01:11:00;94380.34;;;9.22;100.00
13029;BME280;6581;42.662;23.402;2023-04-26T01:13:28;94384.47;;;9.16;100.00
13029;BME280;6581;42.662;23.402;2023-04-26T01:15:58;94385.97;;;9.14;100.00
13029;BME280;6581;42.662;23.402;2023-04-26T01:18:25;94388.59;;;9.10;100.00
13029;BME280;6581;42.662;23.402;2023-04-26T01:20:54;94384.84;;;9.15;100.00
13029;BME280;6581;42.662;23.402;2023-04-26T01:23:23;94379.50;;;9.08;100.00
13029;BME280;6581;42.662;23.402;2023-04-26T01:25:50;94371.63;;;9.11;100.00
13029;BME280;6581;42.662;23.402;2023-04-26T01:28:20;94370.03;;;9.00;100.00
13029;BME280;6581;42.662;23.402;2023-04-26T01:30:48;94363.22;;;8.99;100.00
13029;BME280;6581;42.662;23.402;2023-04-26T01:33:15;94356.78;;;8.93;100.00
13029;BME280;6581;42.662;23.402;2023-04-26T01:35:43;94368.50;;;8.99;100.00
13029;BME280;6581;42.662;23.402;2023-04-26T01:38:35;94368.16;;;9.00;100.00
13029;BME280;6581;42.662;23.402;2023-04-26T01:41:03;94370.00;;;8.93;100.00
13029;BME280;6581;42.662;23.402;2023-04-26T01:43:31;94368.88;;;8.94;100.00
13029;BME280;6581;42.662;23.402;2023-04-26T01:45:58;94366.59;;;8.92;100.00
13029;BME280;6581;42.662;23.402;2023-04-26T01:48:29;94377.16;;;8.92;100.00
13029;BME280;6581;42.662;23.402;2023-04-26T01:50:56;94376.75;;;8.86;100.00
13029;BME280;6581;42.662;23.402;2023-04-26T01:53:23;94381.25;;;8.82;100.00
13029;BME280;6581;42.662;23.402;2023-04-26T01:55:52;94380.13;;;8.83;100.00
13029;BME280;6581;42.662;23.402;2023-04-26T01:58:20;94377.50;;;8.87;100.00
13029;BME280;6581;42.662;23.402;2023-04-26T02:00:48;94376.00;;;8.89;100.00
13029;BME280;6581;42.662;23.402;2023-04-26T02:03:15;94369.16;;;8.81;100.00
13029;BME280;6581;42.662;23.402;2023-04-26T02:05:42;94371.03;;;8.77;100.00
13029;BME280;6581;42.662;23.402;2023-04-26T02:08:10;94371.44;;;8.83;100.00
13029;BME280;6581;42.662;23.402;2023-04-26T02:10:37;94366.53;;;8.81;100.00
13029;BME280;6581;42.662;23.402;2023-04-26T02:13:07;94371.72;;;8.71;100.00
13029;BME280;6581;42.662;23.402;2023-04-26T02:15:35;94372.09;;;8.69;100.00
13029;BME280;6581;42.662;23.402;2023-04-26T02:18:02;94372.47;;;8.71;100.00
13029;BME280;6581;42.662;23.402;2023-04-26T02:20:29;94367.94;;;8.65;100.00
13029;BME280;6581;42.662;23.402;2023-04-26T02:22:56;94355.06;;;8.60;100.00
13029;BME280;6581;42.662;23.402;2023-04-26T02:25:23;94359.19;;;8.57;100.00
13029;BME280;6581;42.662;23.402;2023-04-26T02:27:50;94360.66;;;8.51;100.00
13029;BME280;6581;42.662;23.402;2023-04-26T02:30:19;94363.22;;;8.44;100.00
13029;BME280;6581;42.662;23.402;2023-04-26T02:32:46;94366.69;;;8.52;100.00
13029;BME280;6581;42.662;23.402;2023-04-26T02:35:13;94360.69;;;8.58;100.00
13029;BME280;6581;42.662;23.402;2023-04-26T02:37:40;94370.78;;;8.42;100.00
13029;BME280;6581;42.662;23.402;2023-04-26T02:40:09;94373.84;;;8.48;100.00
13029;BME280;6581;42.662;23.402;2023-04-26T02:42:36;94370.47;;;8.51;100.00
13029;BME280;6581;42.662;23.402;2023-04-26T02:45:31;94366.28;;;8.46;100.00
13029;BME280;6581;42.662;23.402;2023-04-26T02:47:58;94364.44;;;8.54;100.00
13029;BME280;6581;42.662;23.402;2023-04-26T02:50:25;94363.34;;;8.62;100.00
13029;BME280;6581;42.662;23.402;2023-04-26T02:52:52;94351.00;;;8.69;100.00
13029;BME280;6581;42.662;23.402;2023-04-26T02:55:19;94350.91;;;8.62;100.00
13029;BME280;6581;42.662;23.402;2023-04-26T02:57:46;94347.91;;;8.60;100.00
13029;BME280;6581;42.662;23.402;2023-04-26T03:00:14;94341.94;;;8.70;100.00
13029;BME280;6581;42.662;23.402;2023-04-26T03:02:42;94340.84;;;8.75;100.00
13029;BME280;6581;42.662;23.402;2023-04-26T03:05:10;94349.13;;;8.73;100.00
13029;BME280;6581;42.662;23.402;2023-04-26T03:07:38;94346.16;;;8.85;100.00
13029;BME280;6581;42.662;23.402;2023-04-26T03:10:07;94350.41;;;8.94;100.00
13029;BME280;6581;42.662;23.402;2023-04-26T03:12:34;94349.56;;;8.82;100.00
13029;BME280;6581;42.662;23.402;2023-04-26T03:15:01;94355.19;;;8.81;100.00
13029;BME280;6581;42.662;23.402;2023-04-26T03:17:29;94347.34;;;8.92;100.00
13029;BME280;6581;42.662;23.402;2023-04-26T03:19:58;94344.72;;;8.95;100.00
13029;BME280;6581;42.662;23.402;2023-04-26T03:22:25;94345.47;;;8.92;100.00
13029;BME280;6581;42.662;23.402;2023-04-26T03:24:52;94340.22;;;8.99;100.00
13029;BME280;6581;42.662;23.402;2023-04-26T03:27:20;94338.31;;;8.93;100.00
13029;BME280;6581;42.662;23.402;2023-04-26T03:29:48;94340.94;;;8.93;100.00
13029;BME280;6581;42.662;23.402;2023-04-26T03:32:15;94345.50;;;8.99;100.00
13029;BME280;6581;42.662;23.402;2023-04-26T03:34:43;94350.03;;;8.99;100.00
13029;BME280;6581;42.662;23.402;2023-04-26T03:37:11;94348.84;;;8.89;100.00
13029;BME280;6581;42.662;23.402;2023-04-26T03:39:39;94343.19;;;8.94;100.00
13029;BME280;6581;42.662;23.402;2023-04-26T03:42:08;94341.66;;;8.89;100.00
13029;BME280;6581;42.662;23.402;2023-04-26T03:44:35;94342.81;;;8.88;100.00
13029;BME280;6581;42.662;23.402;2023-04-26T03:47:02;94342.47;;;8.94;100.00
13029;BME280;6581;42.662;23.402;2023-04-26T03:49:31;94344.72;;;8.92;100.00
13029;BME280;6581;42.662;23.402;2023-04-26T03:51:58;94349.03;;;8.63;100.00
13029;BME280;6581;42.662;23.402;2023-04-26T03:54:26;94354.41;;;8.77;100.00
13029;BME280;6581;42.662;23.402;2023-04-26T03:56:54;94352.91;;;8.76;100.00
13029;BME280;6581;42.662;23.402;2023-04-26T03:59:21;94348.75;;;8.75;100.00
13029;BME280;6581;42.662;23.402;2023-04-26T04:01:48;94358.91;;;8.69;100.00
13029;BME280;6581;42.662;23.402;2023-04-26T04:04:15;94358.91;;;8.69;100.00
13029;BME280;6581;42.662;23.402;2023-04-26T04:06:43;94366.84;;;8.73;100.00
13029;BME280;6581;42.662;23.402;2023-04-26T04:09:10;94373.31;;;8.82;100.00
13029;BME280;6581;42.662;23.402;2023-04-26T04:11:39;94370.00;;;8.96;100.00
13029;BME280;6581;42.662;23.402;2023-04-26T04:14:06;94370.00;;;8.93;100.00
13029;BME280;6581;42.662;23.402;2023-04-26T04:16:33;94379.56;;;9.15;100.00
13029;BME280;6581;42.662;23.402;2023-04-26T04:19:00;94381.75;;;9.02;100.00
13029;BME280;6581;42.662;23.402;2023-04-26T04:21:28;94385.47;;;8.94;100.00
13029;BME280;6581;42.662;23.402;2023-04-26T04:23:57;94381.44;;;9.14;100.00
13029;BME280;6581;42.662;23.402;2023-04-26T04:26:24;94385.69;;;9.37;100.00
13029;BME280;6581;42.662;23.402;2023-04-26T04:28:54;94383.81;;;9.41;100.00
13029;BME280;6581;42.662;23.402;2023-04-26T04:31:46;94392.66;;;9.73;100.00
13029;BME280;6581;42.662;23.402;2023-04-26T04:34:13;94389.28;;;9.90;100.00
13029;BME280;6581;42.662;23.402;2023-04-26T04:36:41;94393.09;;;10.00;100.00
13029;BME280;6581;42.662;23.402;2023-04-26T04:39:08;94395.00;;;9.99;100.00
13029;BME280;6581;42.662;23.402;2023-04-26T04:41:40;94390.81;;;9.88;100.00
13029;BME280;6581;42.662;23.402;2023-04-26T04:44:14;94389.72;;;10.06;100.00
13029;BME280;6581;42.662;23.402;2023-04-26T04:46:43;94399.56;;;10.09;100.00
13029;BME280;6581;42.662;23.402;2023-04-26T04:49:11;94399.06;;;9.72;100.00
13029;BME280;6581;42.662;23.402;2023-04-26T04:51:38;94396.09;;;9.95;100.00
13029;BME280;6581;42.662;23.402;2023-04-26T04:54:10;94393.91;;;10.07;100.00
13029;BME280;6581;42.662;23.402;2023-04-26T04:56:38;94404.91;;;10.23;100.00
13029;BME280;6581;42.662;23.402;2023-04-26T04:59:07;94401.91;;;10.36;100.00
13029;BME280;6581;42.662;23.402;2023-04-26T05:01:36;94394.72;;;10.40;100.00
13029;BME280;6581;42.662;23.402;2023-04-26T05:04:08;94393.22;;;10.53;100.00
13029;BME280;6581;42.662;23.402;2023-04-26T05:06:36;94404.56;;;10.53;100.00
13029;BME280;6581;42.662;23.402;2023-04-26T05:09:03;94403.44;;;10.47;100.00
13029;BME280;6581;42.662;23.402;2023-04-26T05:11:31;94400.41;;;10.63;100.00
13029;BME280;6581;42.662;23.402;2023-04-26T05:14:00;94401.16;;;10.60;100.00
13029;BME280;6581;42.662;23.402;2023-04-26T05:16:28;94403.06;;;10.52;100.00
13029;BME280;6581;42.662;23.402;2023-04-26T05:18:56;94406.41;;;10.32;100.00
13029;BME280;6581;42.662;23.402;2023-04-26T05:21:23;94405.72;;;10.52;100.00
13029;BME280;6581;42.662;23.402;2023-04-26T05:23:50;94395.88;;;10.71;100.00
13029;BME280;6581;42.662;23.402;2023-04-26T05:26:17;94405.34;;;10.86;100.00
13029;BME280;6581;42.662;23.402;2023-04-26T05:29:11;94411.38;;;10.90;100.00
13029;BME280;6581;42.662;23.402;2023-04-26T05:32:01;94414.41;;;10.92;100.00
13029;BME280;6581;42.662;23.402;2023-04-26T05:34:43;94421.59;;;10.74;100.00
13029;BME280;6581;42.662;23.402;2023-04-26T05:37:14;94421.59;;;10.88;100.00
13029;BME280;6581;42.662;23.402;2023-04-26T05:39:42;94417.41;;;11.11;100.00
13029;BME280;6581;42.662;23.402;2023-04-26T05:42:09;94425.31;;;11.40;100.00
13029;BME280;6581;42.662;23.402;2023-04-26T05:44:37;94428.31;;;11.49;100.00
13029;BME280;6581;42.662;23.402;2023-04-26T05:47:06;94423.31;;;11.69;100.00
13029;BME280;6581;42.662;23.402;2023-04-26T05:49:33;94427.91;;;11.68;100.00
13029;BME280;6581;42.662;23.402;2023-04-26T05:52:02;94423.31;;;11.79;100.00
13029;BME280;6581;42.662;23.402;2023-04-26T05:54:29;94425.22;;;11.75;100.00
13029;BME280;6581;42.662;23.402;2023-04-26T05:56:56;94427.78;;;12.00;100.00
13029;BME280;6581;42.662;23.402;2023-04-26T05:59:24;94428.47;;;12.15;100.00
13029;BME280;6581;42.662;23.402;2023-04-26T06:01:51;94427.28;;;12.19;100.00
13029;BME280;6581;42.662;23.402;2023-04-26T06:04:18;94429.94;;;12.26;100.00
13029;BME280;6581;42.662;23.402;2023-04-26T06:07:01;94429.97;;;12.23;100.00
13029;BME280;6581;42.662;23.402;2023-04-26T06:09:30;94429.47;;;12.38;100.00
13029;BME280;6581;42.662;23.402;2023-04-26T06:11:58;94420.41;;;12.29;100.00
13029;BME280;6581;42.662;23.402;2023-04-26T06:14:25;94434.16;;;12.17;100.00
13029;BME280;6581;42.662;23.402;2023-04-26T06:16:54;94432.66;;;12.12;100.00
13029;BME280;6581;42.662;23.402;2023-04-26T06:19:47;94429.63;;;12.14;100.00
13029;BME280;6581;42.662;23.402;2023-04-26T06:22:16;94424.72;;;12.02;100.00
13029;BME280;6581;42.662;23.402;2023-04-26T06:24:43;94428.88;;;12.06;100.00
13029;BME280;6581;42.662;23.402;2023-04-26T06:27:10;94420.53;;;12.11;100.00
13029;BME280;6581;42.662;23.402;2023-04-26T06:30:06;94422.44;;;12.07;100.00
13029;BME280;6581;42.662;23.402;2023-04-26T06:32:37;94429.94;;;12.26;100.00
13029;BME280;6581;42.662;23.402;2023-04-26T06:35:05;94424.97;;;12.28;100.00
13029;BME280;6581;42.662;23.402;2023-04-26T06:37:34;94423.09;;;12.25;100.00
13029;BME280;6581;42.662;23.402;2023-04-26T06:40:01;94422.38;;;12.18;100.00
13029;BME280;6581;42.662;23.402;2023-04-26T06:42:30;94421.56;;;12.31;100.00
13029;BME280;6581;42.662;23.402;2023-04-26T06:45:11;94417.44;;;12.20;100.00
13029;BME280;6581;42.662;23.402;2023-04-26T06:47:38;94424.91;;;12.39;100.00
13029;BME280;6581;42.662;23.402;2023-04-26T06:50:07;94419.03;;;12.65;100.00
13029;BME280;6581;42.662;23.402;2023-04-26T06:52:35;94419.84;;;12.62;100.00
13029;BME280;6581;42.662;23.402;2023-04-26T06:55:27;94423.44;;;12.86;100.00
13029;BME280;6581;42.662;23.402;2023-04-26T06:57:55;94427.25;;;12.85;98.89
13029;BME280;6581;42.662;23.402;2023-04-26T07:00:22;94424.03;;;12.56;93.31
13029;BME280;6581;42.662;23.402;2023-04-26T07:02:49;94431.78;;;12.36;87.11
13029;BME280;6581;42.662;23.402;2023-04-26T07:05:16;94427.88;;;11.79;87.71
13029;BME280;6581;42.662;23.402;2023-04-26T07:07:45;94443.44;;;11.63;86.88
13029;BME280;6581;42.662;23.402;2023-04-26T07:10:12;94434.78;;;11.41;91.18
13029;BME280;6581;42.662;23.402;2023-04-26T07:12:39;94433.22;;;11.57;90.72
13029;BME280;6581;42.662;23.402;2023-04-26T07:15:07;94447.63;;;11.64;86.99
13029;BME280;6581;42.662;23.402;2023-04-26T07:17:35;94441.16;;;11.68;83.85
13029;BME280;6581;42.662;23.402;2023-04-26T07:20:02;94447.50;;;11.99;83.80
13029;BME280;6581;42.662;23.402;2023-04-26T07:22:29;94450.53;;;12.05;82.98
13029;BME280;6581;42.662;23.402;2023-04-26T07:24:58;94446.72;;;12.06;84.33
13029;BME280;6581;42.662;23.402;2023-04-26T07:27:50;94448.47;;;12.37;83.69
13029;BME280;6581;42.662;23.402;2023-04-26T07:30:17;94451.38;;;12.60;82.45
13029;BME280;6581;42.662;23.402;2023-04-26T07:32:44;94453.56;;;12.72;79.73
13029;BME280;6581;42.662;23.402;2023-04-26T07:35:11;94455.41;;;13.68;77.66
13029;BME280;6581;42.662;23.402;2023-04-26T07:37:41;94454.53;;;14.69;70.63
13029;BME280;6581;42.662;23.402;2023-04-26T07:40:11;94462.13;;;16.07;62.91
13029;BME280;6581;42.662;23.402;2023-04-26T07:42:38;94450.34;;;15.84;61.76
13029;BME280;6581;42.662;23.402;2023-04-26T07:45:07;94462.28;;;14.87;63.44
13029;BME280;6581;42.662;23.402;2023-04-26T07:47:34;94458.00;;;15.39;62.52
13029;BME280;6581;42.662;23.402;2023-04-26T07:50:01;94463.16;;;16.13;57.44
13029;BME280;6581;42.662;23.402;2023-04-26T07:52:29;94460.03;;;16.34;55.41
13029;BME280;6581;42.662;23.402;2023-04-26T07:54:56;94465.00;;;16.88;54.37
13029;BME280;6581;42.662;23.402;2023-04-26T07:57:24;94452.66;;;15.63;57.29
13029;BME280;6581;42.662;23.402;2023-04-26T07:59:51;94456.78;;;15.21;60.33
13029;BME280;6581;42.662;23.402;2023-04-26T08:02:18;94467.81;;;14.12;64.28
13029;BME280;6581;42.662;23.402;2023-04-26T08:04:49;94454.44;;;13.51;67.47
13029;BME280;6581;42.662;23.402;2023-04-26T08:07:17;94464.13;;;12.79;68.31
13029;BME280;6581;42.662;23.402;2023-04-26T08:09:45;94464.75;;;12.98;70.50
13029;BME280;6581;42.662;23.402;2023-04-26T08:12:13;94474.81;;;13.24;67.40
13029;BME280;6581;42.662;23.402;2023-04-26T08:14:41;94455.59;;;13.02;67.49
13029;BME280;6581;42.662;23.402;2023-04-26T08:17:08;94466.31;;;12.92;66.35
13029;BME280;6581;42.662;23.402;2023-04-26T08:19:36;94472.97;;;12.62;70.70
13029;BME280;6581;42.662;23.402;2023-04-26T08:22:03;94459.41;;;12.42;73.62
13029;BME280;6581;42.662;23.402;2023-04-26T08:24:30;94471.53;;;12.51;71.23
13029;BME280;6581;42.662;23.402;2023-04-26T08:26:57;94469.31;;;12.38;72.22
13029;BME280;6581;42.662;23.402;2023-04-26T08:29:25;94461.47;;;12.14;73.65
13029;BME280;6581;42.662;23.402;2023-04-26T08:31:54;94467.59;;;11.96;73.34
13029;BME280;6581;42.662;23.402;2023-04-26T08:34:21;94461.94;;;11.91;73.30
13029;BME280;6581;42.662;23.402;2023-04-26T08:36:49;94466.53;;;11.87;73.94
13029;BME280;6581;42.662;23.402;2023-04-26T08:39:16;94464.56;;;12.05;73.55
13029;BME280;6581;42.662;23.402;2023-04-26T08:41:49;94453.41;;;12.35;74.63
13029;BME280;6581;42.662;23.402;2023-04-26T08:44:43;94458.66;;;12.42;74.73
13029;BME280;6581;42.662;23.402;2023-04-26T08:47:17;94463.94;;;12.49;73.59
13029;BME280;6581;42.662;23.402;2023-04-26T08:49:45;94462.44;;;12.44;73.04
13029;BME280;6581;42.662;23.402;2023-04-26T08:52:14;94463.50;;;12.58;73.25
13029;BME280;6581;42.662;23.402;2023-04-26T08:54:49;94461.38;;;12.35;71.32
13029;BME280;6581;42.662;23.402;2023-04-26T08:57:17;94453.91;;;12.78;72.38
13029;BME280;6581;42.662;23.402;2023-04-26T08:59:44;94462.25;;;12.76;70.21
13029;BME280;6581;42.662;23.402;2023-04-26T09:02:17;94457.34;;;13.23;70.65
13029;BME280;6581;42.662;23.402;2023-04-26T09:04:45;94457.78;;;13.18;66.64
13029;BME280;6581;42.662;23.402;2023-04-26T09:07:18;94453.97;;;13.19;65.44
13029;BME280;6581;42.662;23.402;2023-04-26T09:09:47;94453.97;;;13.19;65.33
13029;BME280;6581;42.662;23.402;2023-04-26T09:12:17;94461.66;;;13.03;66.46
13029;BME280;6581;42.662;23.402;2023-04-26T09:14:44;94473.34;;;13.16;65.14
13029;BME280;6581;42.662;23.402;2023-04-26T09:17:26;94461.84;;;13.29;66.23
13029;BME280;6581;42.662;23.402;2023-04-26T09:19:54;94470.13;;;13.39;65.25
13029;BME280;6581;42.662;23.402;2023-04-26T09:22:32;94466.03;;;13.30;64.97
13029;BME280;6581;42.662;23.402;2023-04-26T09:25:00;94464.25;;;13.58;67.87
13029;BME280;6581;42.662;23.402;2023-04-26T09:27:32;94461.38;;;13.75;63.10
13029;BME280;6581;42.662;23.402;2023-04-26T09:30:03;94468.75;;;13.64;62.08
13029;BME280;6581;42.662;23.402;2023-04-26T09:32:50;94480.72;;;13.80;62.74
13029;BME280;6581;42.662;23.402;2023-04-26T09:35:26;94466.94;;;13.10;63.41
13029;BME280;6581;42.662;23.402;2023-04-26T09:37:54;94471.53;;;13.50;65.47
13029;BME280;6581;42.662;23.402;2023-04-26T09:40:24;94464.38;;;13.81;62.16
13029;BME280;6581;42.662;23.402;2023-04-26T09:42:56;94470.66;;;13.98;61.40
13029;BME280;6581;42.662;23.402;2023-04-26T09:45:24;94461.03;;;13.73;62.10
13029;BME280;6581;42.662;23.402;2023-04-26T09:47:53;94464.81;;;13.76;61.88
13029;BME280;6581;42.662;23.402;2023-04-26T09:50:26;94462.56;;;13.71;61.76
13029;BME280;6581;42.662;23.402;2023-04-26T09:52:53;94460.28;;;14.07;60.86
13029;BME280;6581;42.662;23.402;2023-04-26T09:55:29;94462.31;;;13.96;59.12
13029;BME280;6581;42.662;23.402;2023-04-26T09:57:56;94449.00;;;13.96;60.63
13029;BME280;6581;42.662;23.402;2023-04-26T10:00:25;94465.41;;;13.91;59.95
13029;BME280;6581;42.662;23.402;2023-04-26T10:02:54;94464.22;;;13.95;62.27
13029;BME280;6581;42.662;23.402;2023-04-26T10:05:46;94460.72;;;14.02;58.05
13029;BME280;6581;42.662;23.402;2023-04-26T10:08:13;94457.19;;;13.78;57.71
13029;BME280;6581;42.662;23.402;2023-04-26T10:10:41;94461.66;;;13.85;59.03
13029;BME280;6581;42.662;23.402;2023-04-26T10:13:33;94465.19;;;13.78;57.85
13029;BME280;6581;42.662;23.402;2023-04-26T10:16:01;94454.72;;;13.94;56.87
13029;BME280;6581;42.662;23.402;2023-04-26T10:18:31;94455.19;;;14.19;61.29
13029;BME280;6581;42.662;23.402;2023-04-26T10:20:59;94457.31;;;14.32;56.32
13029;BME280;6581;42.662;23.402;2023-04-26T10:23:29;94442.88;;;14.59;57.57
13029;BME280;6581;42.662;23.402;2023-04-26T10:25:56;94446.63;;;14.62;53.06
13029;BME280;6581;42.662;23.402;2023-04-26T10:28:53;94453.78;;;14.69;52.55
13029;BME280;6581;42.662;23.402;2023-04-26T10:31:21;94446.56;;;14.92;56.58
13029;BME280;6581;42.662;23.402;2023-04-26T10:37:10;94454.03;;;14.51;49.28
13029;BME280;6581;42.662;23.402;2023-04-26T10:39:39;94454.97;;;14.37;51.40
13029;BME280;6581;42.662;23.402;2023-04-26T10:42:18;94451.00;;;14.18;51.20
13029;BME280;6581;42.662;23.402;2023-04-26T10:44:48;94442.75;;;13.75;51.64
13029;BME280;6581;42.662;23.402;2023-04-26T10:47:26;94451.59;;;13.69;54.04
13029;BME280;6581;42.662;23.402;2023-04-26T10:50:18;94444.09;;;13.57;54.74
13029;BME280;6581;42.662;23.402;2023-04-26T10:53:07;94442.47;;;13.70;55.45
13029;BME280;6581;42.662;23.402;2023-04-26T10:55:38;94445.94;;;13.63;52.73
13029;BME280;6581;42.662;23.402;2023-04-26T10:58:24;94447.97;;;13.49;52.14
13029;BME280;6581;42.662;23.402;2023-04-26T11:01:03;94442.94;;;13.58;51.46
13029;BME280;6581;42.662;23.402;2023-04-26T11:03:31;94443.66;;;13.62;52.35
13029;BME280;6581;42.662;23.402;2023-04-26T11:05:59;94444.00;;;13.67;50.07
13029;BME280;6581;42.662;23.402;2023-04-26T11:08:28;94457.03;;;13.92;49.42
13029;BME280;6581;42.662;23.402;2023-04-26T11:10:58;94446.38;;;13.92;47.62
13029;BME280;6581;42.662;23.402;2023-04-26T11:13:31;94451.19;;;14.04;48.47
13029;BME280;6581;42.662;23.402;2023-04-26T11:15:59;94454.53;;;14.08;49.15
13029;BME280;6581;42.662;23.402;2023-04-26T11:18:29;94453.03;;;14.07;48.08
13029;BME280;6581;42.662;23.402;2023-04-26T11:20:57;94446.06;;;14.17;47.21
13029;BME280;6581;42.662;23.402;2023-04-26T11:23:26;94447.50;;;14.25;46.85
13029;BME280;6581;42.662;23.402;2023-04-26T11:25:57;94438.34;;;14.26;47.56
13029;BME280;6581;42.662;23.402;2023-04-26T11:28:25;94441.84;;;14.50;46.70
13029;BME280;6581;42.662;23.402;2023-04-26T11:30:52;94439.88;;;14.81;47.43
13029;BME280;6581;42.662;23.402;2023-04-26T11:33:45;94439.66;;;15.18;48.25
13029;BME280;6581;42.662;23.402;2023-04-26T11:36:12;94441.25;;;15.39;46.20
13029;BME280;6581;42.662;23.402;2023-04-26T11:38:39;94452.88;;;15.48;44.96
13029;BME280;6581;42.662;23.402;2023-04-26T11:41:08;94460.56;;;15.23;44.33
13029;BME280;6581;42.662;23.402;2023-04-26T11:43:36;94446.16;;;14.71;44.79
13029;BME280;6581;42.662;23.402;2023-04-26T11:46:04;94447.63;;;14.45;46.04
13029;BME280;6581;42.662;23.402;2023-04-26T11:48:34;94463.00;;;14.34;46.18
13029;BME280;6581;42.662;23.402;2023-04-26T11:51:02;94439.31;;;14.43;46.33
13029;BME280;6581;42.662;23.402;2023-04-26T11:53:36;94429.84;;;14.65;48.24
13029;BME280;6581;42.662;23.402;2023-04-26T11:56:05;94439.75;;;14.64;45.65
13029;BME280;6581;42.662;23.402;2023-04-26T11:58:43;94427.00;;;14.76;46.19
13029;BME280;6581;42.662;23.402;2023-04-26T12:01:10;94437.75;;;14.95;46.37
13029;BME280;6581;42.662;23.402;2023-04-26T12:03:37;94438.88;;;14.98;45.63
13029;BME280;6581;42.662;23.402;2023-04-26T12:06:05;94428.25;;;15.18;45.03
13029;BME280;6581;42.662;23.402;2023-04-26T12:08:32;94435.44;;;14.97;44.48
13029;BME280;6581;42.662;23.402;2023-04-26T12:11:00;94424.75;;;14.74;45.08
13029;BME280;6581;42.662;23.402;2023-04-26T12:13:27;94423.69;;;14.68;45.91
13029;BME280;6581;42.662;23.402;2023-04-26T12:15:56;94426.81;;;14.63;47.16
13029;BME280;6581;42.662;23.402;2023-04-26T12:18:29;94418.03;;;14.39;46.90
13029;BME280;6581;42.662;23.402;2023-04-26T12:20:57;94422.91;;;14.44;47.02
13029;BME280;6581;42.662;23.402;2023-04-26T12:23:24;94425.28;;;14.39;47.05
13029;BME280;6581;42.662;23.402;2023-04-26T12:25:54;94422.91;;;14.44;47.68
13029;BME280;6581;42.662;23.402;2023-04-26T12:28:21;94415.22;;;14.50;48.04
13029;BME280;6581;42.662;23.402;2023-04-26T12:30:50;94423.81;;;14.61;48.25
13029;BME280;6581;42.662;23.402;2023-04-26T12:33:19;94418.06;;;14.62;46.88
13029;BME280;6581;42.662;23.402;2023-04-26T12:35:47;94421.44;;;14.67;47.76
13029;BME280;6581;42.662;23.402;2023-04-26T12:38:15;94427.28;;;14.58;46.14
13029;BME280;6581;42.662;23.402;2023-04-26T12:40:43;94421.84;;;14.38;46.44
13029;BME280;6581;42.662;23.402;2023-04-26T12:43:10;94416.81;;;14.44;45.32
13029;BME280;6581;42.662;23.402;2023-04-26T12:45:37;94430.31;;;14.60;47.15
13029;BME280;6581;42.662;23.402;2023-04-26T12:48:31;94423.91;;;14.54;46.21
13029;BME280;6581;42.662;23.402;2023-04-26T12:50:58;94419.84;;;14.46;47.69
13029;BME280;6581;42.662;23.402;2023-04-26T12:53:25;94411.09;;;14.45;47.42
13029;BME280;6581;42.662;23.402;2023-04-26T12:55:53;94424.06;;;14.43;46.53
13029;BME280;6581;42.662;23.402;2023-04-26T12:58:20;94427.66;;;14.30;47.37
13029;BME280;6581;42.662;23.402;2023-04-26T13:00:47;94417.91;;;14.19;49.22
13029;BME280;6581;42.662;23.402;2023-04-26T13:03:40;94432.69;;;14.24;49.13
13029;BME280;6581;42.662;23.402;2023-04-26T13:06:07;94427.78;;;13.89;48.98
13029;BME280;6581;42.662;23.402;2023-04-26T13:08:34;94430.63;;;13.71;48.99
13029;BME280;6581;42.662;23.402;2023-04-26T13:11:02;94426.78;;;13.75;48.99
13029;BME280;6581;42.662;23.402;2023-04-26T13:13:29;94422.22;;;13.76;50.41
13029;BME280;6581;42.662;23.402;2023-04-26T13:15:56;94423.41;;;13.71;50.15